Time;durP1;ratioP1;P1;durP2;ratioP2;P2;SDS_P1;SDS_P2;PMS_P1;PMS_P2;Temp;Humidity;BMP_temperature;BMP_pressure;BME280_temperature;BME280_humidity;BME280_pressure;Samples;Min_cycle;Max_cycle;Signal;HPM_P1;HPM_P2
2023/04/28 00:02:12;;;;;;;8.53;5.73;;;;;;;;;;5051437;28;20268;-57
2023/04/28 00:04:38;;;;;;;8.90;6.67;;;;;;;;;;5067759;28;20180;-56
2023/04/28 00:07:04;;;;;;;7.70;6.77;;;;;;;;;;5066975;28;20229;-56
2023/04/28 00:09:30;;;;;;;7.10;6.40;;;;;;;;;;5069278;28;20184;-56
2023/04/28 00:11:56;;;;;;;6.50;5.70;;;;;;;;;;5073188;28;20562;-56
2023/04/28 00:14:22;;;;;;;7.07;5.80;;;;;;;;;;5068778;28;20233;-56
2023/04/28 00:16:49;;;;;;;7.33;6.53;;;;;;;;;;5068723;28;20180;-56
2023/04/28 00:19:16;;;;;;;12.03;5.90;;;;;;;;;;5067905;28;20184;-56
2023/04/28 00:21:42;;;;;;;6.27;5.67;;;;;;;;;;5069516;28;20215;-56
2023/04/28 00:24:08;;;;;;;6.77;6.07;;;;;;;;;;5069273;28;20208;-56
2023/04/28 00:26:34;;;;;;;9.73;6.50;;;;;;;;;;5063543;28;20986;-57
2023/04/28 00:29:00;;;;;;;7.13;6.43;;;;;;;;;;5068908;28;20193;-56
2023/04/28 00:31:26;;;;;;;7.40;6.50;;;;;;;;;;5069452;28;20184;-56
2023/04/28 00:33:52;;;;;;;7.33;5.73;;;;;;;;;;5063521;28;20195;-57
2023/04/28 00:36:18;;;;;;;10.20;6.83;;;;;;;;;;5067330;28;20570;-56
2023/04/28 00:38:45;;;;;;;9.37;6.47;;;;;;;;;;5057114;28;20519;-57
2023/04/28 00:41:11;;;;;;;7.37;6.63;;;;;;;;;;5061566;28;20232;-58
2023/04/28 00:43:45;;;;;;;10.57;6.87;;;;;;;;;;5068155;28;20766;-57
2023/04/28 00:46:13;;;;;;;6.60;5.90;;;;;;;;;;5062499;28;20177;-56
2023/04/28 00:48:40;;;;;;;8.07;6.40;;;;;;;;;;5066791;28;20195;-58
2023/04/28 00:51:06;;;;;;;8.13;6.57;;;;;;;;;;5062407;28;20177;-58
2023/04/28 00:53:33;;;;;;;6.87;6.20;;;;;;;;;;5066680;28;20191;-58
2023/04/28 00:56:00;;;;;;;8.23;6.37;;;;;;;;;;5064309;28;20173;-58
2023/04/28 00:58:26;;;;;;;8.83;6.73;;;;;;;;;;5064139;28;20177;-58
2023/04/28 01:00:52;;;;;;;8.17;7.37;;;;;;;;;;5066825;28;20208;-58
2023/04/28 01:03:18;;;;;;;8.23;7.27;;;;;;;;;;5067735;28;20190;-57
2023/04/28 01:05:44;;;;;;;8.00;7.00;;;;;;;;;;5068272;28;20188;-57
2023/04/28 01:08:10;;;;;;;8.60;6.93;;;;;;;;;;5067694;28;20271;-57
2023/04/28 01:10:43;;;;;;;8.17;7.20;;;;;;;;;;5063609;28;20588;-57
2023/04/28 01:13:09;;;;;;;8.07;7.27;;;;;;;;;;5067887;28;20524;-57
2023/04/28 01:15:35;;;;;;;7.97;6.63;;;;;;;;;;5066175;28;20184;-57
2023/04/28 01:18:01;;;;;;;10.93;7.20;;;;;;;;;;5067990;28;20253;-57
2023/04/28 01:20:27;;;;;;;8.80;6.93;;;;;;;;;;5066958;28;20858;-58
2023/04/28 01:22:53;;;;;;;12.13;7.83;;;;;;;;;;5064206;28;20191;-58
2023/04/28 01:25:19;;;;;;;9.77;7.23;;;;;;;;;;5067179;28;20262;-58
2023/04/28 01:27:45;;;;;;;10.03;7.97;;;;;;;;;;5053684;28;20400;-57
2023/04/28 01:30:11;;;;;;;10.67;8.57;;;;;;;;;;5061226;28;20295;-58
2023/04/28 01:32:37;;;;;;;8.17;7.10;;;;;;;;;;5067414;28;20580;-58
2023/04/28 01:35:03;;;;;;;9.57;8.23;;;;;;;;;;5065815;28;20184;-58
2023/04/28 01:37:29;;;;;;;9.23;7.43;;;;;;;;;;5068223;28;20184;-57
2023/04/28 01:39:55;;;;;;;10.43;7.50;;;;;;;;;;5057683;28;20180;-58
2023/04/28 01:42:21;;;;;;;9.27;7.83;;;;;;;;;;5065830;28;20180;-58
2023/04/28 01:44:47;;;;;;;9.47;7.80;;;;;;;;;;5066768;28;20758;-58
2023/04/28 01:47:13;;;;;;;9.10;7.83;;;;;;;;;;5067089;28;20279;-59
2023/04/28 01:49:39;;;;;;;10.27;9.10;;;;;;;;;;5066345;28;20193;-57
2023/04/28 01:52:05;;;;;;;10.97;9.87;;;;;;;;;;5066476;28;20181;-58
2023/04/28 01:54:31;;;;;;;9.93;7.70;;;;;;;;;;5064577;28;20184;-58
2023/04/28 01:56:57;;;;;;;9.30;8.30;;;;;;;;;;5063268;28;20579;-58
2023/04/28 01:59:23;;;;;;;11.90;8.27;;;;;;;;;;5065889;28;20531;-58
2023/04/28 02:01:49;;;;;;;9.87;8.47;;;;;;;;;;5067472;28;20678;-56
2023/04/28 02:04:16;;;;;;;9.97;8.17;;;;;;;;;;5064963;28;20347;-58
2023/04/28 02:06:42;;;;;;;9.87;7.97;;;;;;;;;;5067515;28;20223;-58
2023/04/28 02:09:08;;;;;;;10.03;8.93;;;;;;;;;;5065103;28;20174;-58
2023/04/28 02:11:34;;;;;;;9.63;8.67;;;;;;;;;;5063705;28;20201;-58
2023/04/28 02:14:00;;;;;;;8.97;7.90;;;;;;;;;;5062212;28;20250;-58
2023/04/28 02:16:26;;;;;;;8.70;7.80;;;;;;;;;;5067131;28;20203;-58
2023/04/28 02:18:52;;;;;;;10.60;8.10;;;;;;;;;;5063971;28;20468;-57
2023/04/28 02:21:18;;;;;;;10.77;8.67;;;;;;;;;;5065679;28;20303;-57
2023/04/28 02:23:44;;;;;;;9.47;8.03;;;;;;;;;;5066245;28;20228;-57
2023/04/28 02:26:10;;;;;;;14.17;8.73;;;;;;;;;;5066052;28;20652;-58
2023/04/28 02:28:36;;;;;;;9.13;8.07;;;;;;;;;;5065802;28;20671;-57
2023/04/28 02:31:05;;;;;;;11.03;8.77;;;;;;;;;;5068753;28;20184;-57
2023/04/28 02:33:32;;;;;;;9.30;8.07;;;;;;;;;;5070182;28;20176;-57
2023/04/28 02:35:59;;;;;;;9.50;8.17;;;;;;;;;;5071049;28;20208;-57
2023/04/28 02:38:25;;;;;;;10.77;8.13;;;;;;;;;;5069420;28;20823;-57
2023/04/28 02:40:59;;;;;;;9.90;8.60;;;;;;;;;;5068763;28;20204;-58
2023/04/28 02:43:25;;;;;;;10.30;8.47;;;;;;;;;;5065332;28;20188;-58
2023/04/28 02:45:51;;;;;;;11.13;9.88;;;;;;;;;;5069736;28;20422;-57
2023/04/28 02:48:17;;;;;;;9.93;8.53;;;;;;;;;;5063829;28;20181;-58
2023/04/28 02:50:45;;;;;;;10.77;8.40;;;;;;;;;;5069300;28;20184;-58
2023/04/28 02:53:11;;;;;;;9.83;8.50;;;;;;;;;;5070864;28;20189;-59
2023/04/28 02:55:37;;;;;;;8.47;7.57;;;;;;;;;;5069245;28;20644;-59
2023/04/28 02:58:03;;;;;;;9.50;8.53;;;;;;;;;;5069252;28;20691;-57
2023/04/28 03:00:29;;;;;;;8.97;8.07;;;;;;;;;;5068833;28;20672;-57
2023/04/28 03:02:55;;;;;;;10.70;8.10;;;;;;;;;;5070387;28;20656;-57
2023/04/28 03:05:21;;;;;;;9.30;8.33;;;;;;;;;;5068089;28;20182;-57
2023/04/28 03:07:47;;;;;;;9.47;7.73;;;;;;;;;;5070433;28;20599;-57
2023/04/28 03:10:13;;;;;;;11.27;8.70;;;;;;;;;;5069083;28;20211;-57
2023/04/28 03:12:40;;;;;;;9.53;8.07;;;;;;;;;;5066246;28;20577;-57
2023/04/28 03:15:07;;;;;;;10.17;7.93;;;;;;;;;;5067612;28;20694;-57
2023/04/28 03:17:35;;;;;;;8.33;7.53;;;;;;;;;;5060679;28;20597;-57
2023/04/28 03:20:01;;;;;;;11.27;8.03;;;;;;;;;;5067366;28;20545;-57
2023/04/28 03:22:27;;;;;;;10.03;7.70;;;;;;;;;;5064581;28;20185;-57
2023/04/28 03:24:53;;;;;;;9.97;7.50;;;;;;;;;;5068301;28;20649;-57
2023/04/28 03:27:20;;;;;;;8.87;7.67;;;;;;;;;;5061677;28;20176;-57
2023/04/28 03:29:46;;;;;;;9.33;8.30;;;;;;;;;;5068142;28;20189;-57
2023/04/28 03:32:12;;;;;;;9.87;8.73;;;;;;;;;;5065902;28;20237;-58
2023/04/28 03:34:38;;;;;;;12.53;8.60;;;;;;;;;;5066112;28;20181;-56
2023/04/28 03:37:04;;;;;;;8.17;7.40;;;;;;;;;;5068705;28;20323;-56
2023/04/28 03:39:30;;;;;;;7.90;7.10;;;;;;;;;;5063345;28;20197;-57
2023/04/28 03:41:56;;;;;;;11.03;8.50;;;;;;;;;;5067890;28;20231;-57
2023/04/28 03:44:22;;;;;;;11.47;8.40;;;;;;;;;;5067260;28;20620;-56
2023/04/28 03:46:49;;;;;;;9.47;7.60;;;;;;;;;;5069429;28;20574;-56
2023/04/28 03:49:15;;;;;;;8.73;7.43;;;;;;;;;;5069038;28;20644;-56
2023/04/28 03:51:41;;;;;;;8.37;7.53;;;;;;;;;;5067884;28;20275;-56
2023/04/28 03:54:07;;;;;;;7.90;7.20;;;;;;;;;;5061850;28;20181;-55
2023/04/28 03:56:34;;;;;;;13.27;7.27;;;;;;;;;;5067553;28;20363;-56
2023/04/28 03:59:00;;;;;;;10.97;6.87;;;;;;;;;;5068204;28;20188;-56
2023/04/28 04:01:26;;;;;;;6.97;5.97;;;;;;;;;;5066874;28;20204;-55
2023/04/28 04:03:52;;;;;;;8.10;6.73;;;;;;;;;;5067846;28;20192;-57
2023/04/28 04:06:19;;;;;;;10.37;8.03;;;;;;;;;;5069303;28;20306;-57
2023/04/28 04:08:45;;;;;;;8.03;7.23;;;;;;;;;;5067891;28;20194;-56
2023/04/28 04:11:11;;;;;;;7.90;6.87;;;;;;;;;;5068350;28;20679;-57
2023/04/28 04:13:37;;;;;;;7.50;6.80;;;;;;;;;;5056862;28;20319;-56
2023/04/28 04:16:03;;;;;;;12.03;7.47;;;;;;;;;;5068079;28;20180;-56
2023/04/28 04:18:29;;;;;;;7.97;6.23;;;;;;;;;;5065559;28;20188;-56
2023/04/28 04:20:56;;;;;;;8.10;6.67;;;;;;;;;;5069549;28;20605;-56
2023/04/28 04:23:22;;;;;;;8.33;7.53;;;;;;;;;;5068998;28;20208;-56
2023/04/28 04:25:48;;;;;;;7.87;5.83;;;;;;;;;;5068452;28;20172;-56
2023/04/28 04:28:15;;;;;;;11.57;7.47;;;;;;;;;;5067042;28;20196;-56
2023/04/28 04:30:41;;;;;;;7.67;6.97;;;;;;;;;;5061164;28;20652;-56
2023/04/28 04:33:07;;;;;;;8.17;7.10;;;;;;;;;;5065728;28;20176;-56
2023/04/28 04:35:34;;;;;;;7.30;6.70;;;;;;;;;;5068286;28;20181;-56
2023/04/28 04:38:00;;;;;;;10.27;6.87;;;;;;;;;;5066100;28;20184;-57
2023/04/28 04:40:26;;;;;;;9.63;6.73;;;;;;;;;;5063499;28;20234;-56
2023/04/28 04:42:52;;;;;;;7.73;7.10;;;;;;;;;;5067973;28;20207;-56
2023/04/28 04:45:18;;;;;;;8.47;7.57;;;;;;;;;;5064546;28;20641;-56
2023/04/28 04:47:44;;;;;;;9.03;8.03;;;;;;;;;;5067174;28;20181;-57
2023/04/28 04:50:11;;;;;;;9.17;7.90;;;;;;;;;;5061293;28;20219;-57
2023/04/28 04:52:37;;;;;;;10.27;8.57;;;;;;;;;;5064512;28;20584;-57
2023/04/28 04:55:03;;;;;;;8.63;7.20;;;;;;;;;;5062157;28;20188;-57
2023/04/28 04:57:29;;;;;;;7.37;6.67;;;;;;;;;;5066383;28;20230;-57
2023/04/28 04:59:55;;;;;;;7.87;6.97;;;;;;;;;;5062926;28;20192;-56
2023/04/28 05:02:22;;;;;;;9.90;7.77;;;;;;;;;;5062799;28;20382;-56
2023/04/28 05:04:48;;;;;;;7.40;6.73;;;;;;;;;;5051548;28;20181;-56
2023/04/28 05:07:14;;;;;;;8.17;6.07;;;;;;;;;;5062982;28;20275;-56
2023/04/28 05:09:40;;;;;;;8.23;6.43;;;;;;;;;;5063495;28;20227;-56
2023/04/28 05:12:07;;;;;;;8.77;6.23;;;;;;;;;;5066101;28;20212;-56
2023/04/28 05:14:33;;;;;;;7.23;6.50;;;;;;;;;;5064178;28;20216;-57
2023/04/28 05:17:00;;;;;;;7.50;6.73;;;;;;;;;;5065056;28;20180;-57
2023/04/28 05:19:26;;;;;;;8.17;6.33;;;;;;;;;;5044896;28;20189;-57
2023/04/28 05:21:53;;;;;;;7.73;6.73;;;;;;;;;;5064293;28;20607;-57
2023/04/28 05:24:22;;;;;;;7.60;6.43;;;;;;;;;;5058138;28;20216;-54
2023/04/28 05:26:49;;;;;;;6.80;6.10;;;;;;;;;;5065743;28;20181;-53
2023/04/28 05:29:15;;;;;;;7.53;6.57;;;;;;;;;;5064942;28;20490;-53
2023/04/28 05:31:41;;;;;;;6.43;5.83;;;;;;;;;;5064102;28;20580;-54
2023/04/28 05:34:11;;;;;;;8.47;6.23;;;;;;;;;;5062459;28;20223;-54
2023/04/28 05:36:37;;;;;;;6.03;5.33;;;;;;;;;;5068616;28;20188;-55
2023/04/28 05:39:03;;;;;;;6.47;5.50;;;;;;;;;;5032025;28;20184;-54
2023/04/28 05:41:29;;;;;;;5.27;4.80;;;;;;;;;;5061904;28;20258;-54
2023/04/28 05:43:56;;;;;;;6.20;5.63;;;;;;;;;;5058998;28;20248;-54
2023/04/28 05:46:22;;;;;;;6.23;5.57;;;;;;;;;;5056906;28;20241;-54
2023/04/28 05:48:49;;;;;;;5.73;4.80;;;;;;;;;;5054421;28;20644;-55
2023/04/28 05:51:15;;;;;;;8.33;5.00;;;;;;;;;;5037691;28;20224;-55
2023/04/28 05:53:42;;;;;;;5.90;4.83;;;;;;;;;;5054186;28;20614;-54
2023/04/28 05:56:08;;;;;;;6.93;4.50;;;;;;;;;;5039478;28;20196;-55
2023/04/28 05:58:34;;;;;;;5.27;4.73;;;;;;;;;;5059687;28;20185;-54
2023/04/28 06:01:00;;;;;;;4.63;4.23;;;;;;;;;;5056991;28;20291;-54
2023/04/28 06:03:26;;;;;;;5.30;4.70;;;;;;;;;;5061012;28;20180;-54
2023/04/28 06:05:52;;;;;;;9.57;4.60;;;;;;;;;;5067225;28;20181;-54
2023/04/28 06:08:19;;;;;;;7.80;4.60;;;;;;;;;;5067347;28;20181;-54
2023/04/28 06:10:45;;;;;;;6.97;4.93;;;;;;;;;;5059264;28;20204;-54
2023/04/28 06:13:11;;;;;;;5.47;4.47;;;;;;;;;;5066431;28;20211;-54
2023/04/28 06:15:37;;;;;;;4.73;4.27;;;;;;;;;;5063950;28;20250;-57
2023/04/28 06:18:05;;;;;;;5.60;5.00;;;;;;;;;;5067251;28;20580;-54
2023/04/28 06:20:31;;;;;;;4.90;4.40;;;;;;;;;;5066318;28;20207;-54
2023/04/28 06:22:57;;;;;;;5.53;4.73;;;;;;;;;;5057796;28;20183;-53
2023/04/28 06:25:23;;;;;;;5.33;4.83;;;;;;;;;;5046220;28;20223;-58
2023/04/28 06:27:50;;;;;;;5.90;4.30;;;;;;;;;;5059171;28;20184;-56
2023/04/28 06:30:20;;;;;;;6.57;5.03;;;;;;;;;;5064964;28;20669;-53
2023/04/28 06:32:48;;;;;;;5.90;5.27;;;;;;;;;;5066636;28;20192;-54
2023/04/28 06:35:16;;;;;;;5.23;4.67;;;;;;;;;;5064842;28;20295;-54
2023/04/28 06:37:42;;;;;;;5.23;4.50;;;;;;;;;;5064175;28;20636;-54
2023/04/28 06:40:08;;;;;;;4.77;4.33;;;;;;;;;;5064348;28;20192;-54
2023/04/28 06:42:35;;;;;;;5.93;4.63;;;;;;;;;;5065603;28;20180;-54
2023/04/28 06:45:01;;;;;;;5.20;4.70;;;;;;;;;;5069911;28;20185;-54
2023/04/28 06:47:28;;;;;;;5.40;4.90;;;;;;;;;;5066346;28;20219;-54
2023/04/28 06:49:54;;;;;;;5.10;4.60;;;;;;;;;;5060968;28;20675;-54
2023/04/28 06:52:21;;;;;;;5.30;4.30;;;;;;;;;;5066265;28;20257;-54
2023/04/28 06:54:47;;;;;;;5.57;4.80;;;;;;;;;;5065118;28;20562;-58
2023/04/28 06:57:14;;;;;;;7.57;5.27;;;;;;;;;;5063006;28;20177;-54
2023/04/28 06:59:42;;;;;;;6.00;5.13;;;;;;;;;;5064702;28;20579;-55
2023/04/28 07:02:09;;;;;;;4.53;4.13;;;;;;;;;;5057384;28;20736;-54
2023/04/28 07:04:36;;;;;;;4.80;4.37;;;;;;;;;;5057472;28;20550;-55
2023/04/28 07:07:06;;;;;;;5.03;4.60;;;;;;;;;;5046532;28;20181;-54
2023/04/28 07:09:33;;;;;;;5.33;4.83;;;;;;;;;;5063095;28;20209;-54
2023/04/28 07:12:00;;;;;;;5.43;4.50;;;;;;;;;;5060525;28;20536;-54
2023/04/28 07:14:26;;;;;;;8.00;4.53;;;;;;;;;;5061893;28;20214;-54
2023/04/28 07:16:52;;;;;;;5.63;4.70;;;;;;;;;;5069162;28;20562;-54
2023/04/28 07:19:19;;;;;;;5.80;5.20;;;;;;;;;;5059897;28;20665;-54
2023/04/28 07:21:45;;;;;;;4.97;4.47;;;;;;;;;;5062246;28;20212;-56
2023/04/28 07:24:12;;;;;;;6.13;4.50;;;;;;;;;;5068858;28;20247;-55
2023/04/28 07:26:38;;;;;;;5.80;5.20;;;;;;;;;;5061529;28;20644;-55
2023/04/28 07:29:05;;;;;;;6.90;5.60;;;;;;;;;;5066769;28;20180;-55
2023/04/28 07:31:31;;;;;;;6.33;4.63;;;;;;;;;;5064797;28;20180;-55
2023/04/28 07:33:57;;;;;;;6.20;4.93;;;;;;;;;;5061728;28;20252;-55
2023/04/28 07:36:23;;;;;;;4.37;3.97;;;;;;;;;;5053773;28;20173;-55
2023/04/28 07:38:50;;;;;;;6.53;5.20;;;;;;;;;;5067536;28;20229;-55
2023/04/28 07:41:17;;;;;;;5.23;4.73;;;;;;;;;;5058355;28;20207;-55
2023/04/28 07:43:44;;;;;;;5.27;4.77;;;;;;;;;;5063847;28;20530;-55
2023/04/28 07:46:11;;;;;;;6.73;5.03;;;;;;;;;;5065335;28;20180;-56
2023/04/28 07:48:38;;;;;;;6.97;4.60;;;;;;;;;;5064827;28;20212;-56
2023/04/28 07:51:04;;;;;;;5.23;4.60;;;;;;;;;;5068950;28;20168;-56
2023/04/28 07:53:31;;;;;;;6.10;5.10;;;;;;;;;;5065786;28;20176;-56
2023/04/28 07:55:57;;;;;;;6.90;5.13;;;;;;;;;;5062173;28;20177;-55
2023/04/28 07:58:24;;;;;;;5.30;4.80;;;;;;;;;;5068537;28;20204;-56
2023/04/28 08:00:50;;;;;;;6.30;5.43;;;;;;;;;;5060486;28;20200;-56
2023/04/28 08:03:16;;;;;;;6.43;4.87;;;;;;;;;;5065698;28;20180;-56
2023/04/28 08:05:44;;;;;;;6.07;5.50;;;;;;;;;;5065509;28;20806;-56
2023/04/28 08:08:10;;;;;;;6.50;5.27;;;;;;;;;;5068211;28;20168;-56
2023/04/28 08:10:39;;;;;;;5.30;4.80;;;;;;;;;;5066009;28;20602;-55
2023/04/28 08:13:05;;;;;;;5.60;5.10;;;;;;;;;;5062400;28;20570;-56
2023/04/28 08:15:32;;;;;;;5.77;5.27;;;;;;;;;;5063378;28;20172;-56
2023/04/28 08:17:58;;;;;;;6.37;5.10;;;;;;;;;;5061563;28;20176;-55
2023/04/28 08:20:25;;;;;;;6.80;5.43;;;;;;;;;;5065548;28;20201;-55
2023/04/28 08:22:51;;;;;;;6.07;5.00;;;;;;;;;;5061791;28;20168;-55
2023/04/28 08:25:18;;;;;;;6.43;5.40;;;;;;;;;;5063342;28;20238;-55
2023/04/28 08:27:44;;;;;;;5.43;4.80;;;;;;;;;;5048269;28;20177;-55
2023/04/28 08:30:10;;;;;;;6.80;4.80;;;;;;;;;;5060959;28;20168;-56
2023/04/28 08:32:37;;;;;;;7.17;5.93;;;;;;;;;;5062104;28;20707;-56
2023/04/28 08:35:04;;;;;;;6.03;5.43;;;;;;;;;;5052606;28;20181;-55
2023/04/28 08:37:31;;;;;;;7.13;5.17;;;;;;;;;;5060418;28;20207;-57
2023/04/28 08:40:01;;;;;;;6.03;5.40;;;;;;;;;;5061980;28;20514;-55
2023/04/28 08:42:34;;;;;;;6.80;5.37;;;;;;;;;;5062235;28;20184;-54
2023/04/28 08:45:01;;;;;;;6.33;5.70;;;;;;;;;;5055760;28;20603;-56
2023/04/28 08:47:33;;;;;;;5.90;5.23;;;;;;;;;;5065120;28;20656;-54
2023/04/28 08:50:03;;;;;;;7.83;5.40;;;;;;;;;;5058420;28;20701;-54
2023/04/28 08:52:30;;;;;;;8.87;5.67;;;;;;;;;;5060244;28;20642;-55
2023/04/28 08:54:58;;;;;;;5.90;5.30;;;;;;;;;;5034990;28;20185;-55
2023/04/28 08:57:26;;;;;;;5.90;4.97;;;;;;;;;;5063577;28;20199;-54
2023/04/28 08:59:53;;;;;;;5.70;5.10;;;;;;;;;;5056652;28;20177;-54
2023/04/28 09:02:19;;;;;;;6.30;5.50;;;;;;;;;;5057536;28;20254;-54
2023/04/28 09:04:47;;;;;;;8.30;5.63;;;;;;;;;;5054305;28;20168;-54
2023/04/28 09:07:14;;;;;;;7.53;5.67;;;;;;;;;;5061703;28;20531;-54
2023/04/28 09:09:43;;;;;;;7.23;5.57;;;;;;;;;;5060609;28;21887;-54
2023/04/28 09:12:10;;;;;;;6.77;5.23;;;;;;;;;;5057885;28;20768;-54
2023/04/28 09:14:37;;;;;;;7.70;5.70;;;;;;;;;;5059315;28;20187;-54
2023/04/28 09:17:10;;;;;;;7.17;6.47;;;;;;;;;;5056870;28;20644;-55
2023/04/28 09:19:37;;;;;;;7.47;6.73;;;;;;;;;;5061285;28;20200;-56
2023/04/28 09:22:04;;;;;;;10.80;7.23;;;;;;;;;;5060824;28;20196;-55
2023/04/28 09:24:35;;;;;;;11.07;7.13;;;;;;;;;;5056230;28;20239;-56
2023/04/28 09:27:03;;;;;;;11.27;8.20;;;;;;;;;;5047251;28;20516;-55
2023/04/28 09:29:29;;;;;;;8.57;7.23;;;;;;;;;;5051178;28;20642;-54
2023/04/28 09:32:12;;;;;;;11.53;7.90;;;;;;;;;;5064013;28;20177;-54
2023/04/28 09:34:46;;;;;;;8.70;7.80;;;;;;;;;;5066164;28;20659;-55
2023/04/28 09:37:19;;;;;;;11.97;7.87;;;;;;;;;;5068640;28;20639;-55
2023/04/28 09:39:46;;;;;;;13.93;8.67;;;;;;;;;;5073532;28;20651;-55
2023/04/28 09:42:34;;;;;;;9.07;7.47;;;;;;;;;;5072940;28;20188;-55
2023/04/28 09:45:02;;;;;;;11.63;8.13;;;;;;;;;;5073381;28;20214;-55
2023/04/28 09:47:31;;;;;;;9.17;7.80;;;;;;;;;;5073132;28;20176;-55
2023/04/28 09:49:59;;;;;;;9.57;8.10;;;;;;;;;;5067273;28;20251;-55
2023/04/28 09:52:26;;;;;;;9.57;7.67;;;;;;;;;;5072103;28;20200;-56
2023/04/28 09:54:53;;;;;;;9.40;8.33;;;;;;;;;;5071620;28;20157;-56
2023/04/28 09:57:20;;;;;;;10.37;8.07;;;;;;;;;;5055352;28;20172;-57
2023/04/28 09:59:50;;;;;;;9.30;8.37;;;;;;;;;;5055066;28;20169;-55
2023/04/28 10:02:17;;;;;;;11.27;9.00;;;;;;;;;;5072898;28;20279;-56
2023/04/28 10:04:45;;;;;;;11.33;9.47;;;;;;;;;;5072115;28;20184;-55
2023/04/28 10:07:13;;;;;;;11.07;8.93;;;;;;;;;;5076852;28;20242;-57
2023/04/28 10:09:43;;;;;;;8.63;7.80;;;;;;;;;;5054463;28;20461;-56
2023/04/28 10:12:13;;;;;;;12.40;9.13;;;;;;;;;;5055071;28;20208;-55
2023/04/28 10:14:41;;;;;;;9.87;8.37;;;;;;;;;;5054693;28;20177;-55
2023/04/28 10:17:08;;;;;;;10.60;9.50;;;;;;;;;;5072414;28;20202;-55
2023/04/28 10:19:35;;;;;;;10.43;8.83;;;;;;;;;;5071700;28;20223;-56
2023/04/28 10:22:21;;;;;;;10.77;8.53;;;;;;;;;;5076882;28;20291;-55
2023/04/28 10:25:05;;;;;;;10.93;8.70;;;;;;;;;;5072301;28;20259;-56
2023/04/28 10:27:31;;;;;;;11.87;8.63;;;;;;;;;;5072916;28;20172;-57
2023/04/28 10:30:14;;;;;;;10.47;9.50;;;;;;;;;;5071733;28;20176;-57
2023/04/28 10:32:40;;;;;;;10.23;9.13;;;;;;;;;;5072957;28;20179;-56
2023/04/28 10:35:22;;;;;;;10.37;9.10;;;;;;;;;;5070752;28;20258;-56
2023/04/28 10:38:07;;;;;;;12.30;10.07;;;;;;;;;;5071487;28;20214;-56
2023/04/28 10:40:38;;;;;;;12.03;9.93;;;;;;;;;;5053437;28;20200;-57
2023/04/28 10:43:04;;;;;;;11.07;10.07;;;;;;;;;;5071240;28;20152;-58
2023/04/28 10:45:50;;;;;;;10.70;9.60;;;;;;;;;;5071608;28;20157;-57
2023/04/28 10:48:16;;;;;;;12.43;10.67;;;;;;;;;;5069169;28;20202;-57
2023/04/28 10:51:01;;;;;;;12.40;10.30;;;;;;;;;;5072015;28;20184;-56
2023/04/28 10:53:49;;;;;;;11.80;10.70;;;;;;;;;;5057825;28;20545;-57
2023/04/28 10:56:15;;;;;;;15.77;12.33;;;;;;;;;;5047147;28;20199;-56
2023/04/28 10:58:44;;;;;;;14.20;12.00;;;;;;;;;;5070209;28;20192;-56
2023/04/28 11:01:30;;;;;;;14.50;13.07;;;;;;;;;;5072054;28;20676;-57
2023/04/28 11:06:28;;;;;;;14.10;12.80;;;;;;;;;;5072388;28;20172;-57
2023/04/28 11:09:14;;;;;;;13.60;12.30;;;;;;;;;;5053516;28;20635;-57
2023/04/28 11:11:41;;;;;;;14.13;12.73;;;;;;;;;;5070421;28;20207;-57
2023/04/28 11:14:19;;;;;;;14.83;13.33;;;;;;;;;;5072204;28;20542;-56
2023/04/28 11:16:53;;;;;;;14.67;13.10;;;;;;;;;;5071702;28;20544;-57
2023/04/28 11:19:21;;;;;;;14.97;13.40;;;;;;;;;;5070295;28;20186;-57
2023/04/28 11:21:48;;;;;;;14.23;12.87;;;;;;;;;;5071877;28;20663;-57
2023/04/28 11:24:15;;;;;;;15.33;13.80;;;;;;;;;;5071446;28;20324;-57
2023/04/28 11:26:42;;;;;;;15.57;13.87;;;;;;;;;;5071979;28;20240;-57
2023/04/28 11:29:09;;;;;;;14.80;13.40;;;;;;;;;;5071294;28;20173;-57
2023/04/28 11:31:36;;;;;;;13.63;12.37;;;;;;;;;;5071937;28;20259;-57
2023/04/28 11:34:03;;;;;;;15.90;14.23;;;;;;;;;;5069920;28;20319;-58
2023/04/28 11:36:31;;;;;;;16.63;14.93;;;;;;;;;;5051709;28;20219;-56
2023/04/28 11:38:58;;;;;;;15.50;13.90;;;;;;;;;;5051016;28;20432;-57
2023/04/28 11:41:25;;;;;;;16.70;14.97;;;;;;;;;;5051838;28;20734;-58
2023/04/28 11:43:52;;;;;;;16.90;13.80;;;;;;;;;;5050761;28;20248;-57
2023/04/28 11:46:20;;;;;;;14.53;12.97;;;;;;;;;;5051879;28;20630;-57
2023/04/28 11:48:46;;;;;;;16.53;14.87;;;;;;;;;;5072891;28;20172;-57
2023/04/28 11:51:34;;;;;;;17.47;15.73;;;;;;;;;;5071849;28;20160;-57
2023/04/28 11:54:01;;;;;;;18.40;16.33;;;;;;;;;;5068879;28;20644;-58
2023/04/28 11:56:28;;;;;;;17.23;15.63;;;;;;;;;;5051192;28;20166;-57
2023/04/28 11:59:04;;;;;;;17.53;15.70;;;;;;;;;;5032523;28;20270;-58
2023/04/28 12:01:31;;;;;;;16.53;15.00;;;;;;;;;;5050649;28;20203;-57
2023/04/28 12:03:57;;;;;;;16.83;14.13;;;;;;;;;;5056166;28;20264;-59
2023/04/28 12:06:23;;;;;;;15.80;13.97;;;;;;;;;;5073109;28;20636;-57
2023/04/28 12:08:51;;;;;;;16.77;14.37;;;;;;;;;;5069308;28;20620;-57
2023/04/28 12:11:20;;;;;;;17.37;15.67;;;;;;;;;;5068397;28;20220;-57
2023/04/28 12:14:03;;;;;;;15.50;14.00;;;;;;;;;;5069815;28;20196;-57
2023/04/28 12:16:43;;;;;;;15.23;13.73;;;;;;;;;;5058948;28;20557;-57
2023/04/28 12:19:10;;;;;;;15.40;13.93;;;;;;;;;;5064902;28;20263;-57
2023/04/28 12:21:37;;;;;;;15.73;14.20;;;;;;;;;;5057596;28;20223;-57
2023/04/28 12:24:17;;;;;;;16.43;14.77;;;;;;;;;;5069965;28;20228;-56
2023/04/28 12:26:43;;;;;;;16.87;15.27;;;;;;;;;;5070913;28;20605;-57
2023/04/28 12:29:30;;;;;;;14.43;13.10;;;;;;;;;;5069913;28;20169;-58
2023/04/28 12:31:57;;;;;;;14.10;12.60;;;;;;;;;;5070244;28;20176;-57
2023/04/28 12:34:25;;;;;;;12.97;11.80;;;;;;;;;;5065794;28;20213;-58
2023/04/28 12:36:51;;;;;;;13.90;12.63;;;;;;;;;;5032424;28;20170;-58
2023/04/28 12:39:18;;;;;;;12.63;11.40;;;;;;;;;;5069716;28;20188;-57
2023/04/28 12:41:45;;;;;;;11.40;10.30;;;;;;;;;;5069981;28;20200;-58
2023/04/28 12:44:11;;;;;;;11.00;9.90;;;;;;;;;;5068300;28;20179;-57
2023/04/28 12:46:38;;;;;;;10.73;9.73;;;;;;;;;;5066503;28;20177;-56
2023/04/28 12:49:04;;;;;;;10.90;9.90;;;;;;;;;;5068896;28;20169;-56
2023/04/28 12:51:33;;;;;;;10.57;9.67;;;;;;;;;;5069590;28;20178;-57
2023/04/28 12:57:40;;;;;;;11.40;10.20;;;;;;;;;;5058770;28;20253;-57
2023/04/28 13:00:09;;;;;;;14.60;13.30;;;;;;;;;;5068368;28;20173;-58
2023/04/28 13:02:35;;;;;;;11.83;10.73;;;;;;;;;;5066371;28;20214;-60
2023/04/28 13:05:01;;;;;;;12.93;11.63;;;;;;;;;;5063379;28;20690;-60
2023/04/28 13:07:29;;;;;;;12.30;11.23;;;;;;;;;;5067687;28;20186;-59
2023/04/28 13:09:55;;;;;;;11.70;10.53;;;;;;;;;;5066785;28;20253;-59
2023/04/28 13:12:23;;;;;;;11.27;10.17;;;;;;;;;;5046799;28;20296;-58
2023/04/28 13:14:49;;;;;;;11.03;9.93;;;;;;;;;;5065351;28;20239;-58
2023/04/28 13:17:16;;;;;;;10.40;9.30;;;;;;;;;;5064387;28;20288;-58
2023/04/28 13:19:42;;;;;;;10.80;9.70;;;;;;;;;;5049053;28;20266;-58
2023/04/28 13:22:09;;;;;;;9.77;8.87;;;;;;;;;;5063992;28;20204;-57
2023/04/28 13:24:35;;;;;;;10.33;8.90;;;;;;;;;;5061227;28;20262;-57
2023/04/28 13:27:03;;;;;;;9.37;8.50;;;;;;;;;;5047949;28;20245;-58
2023/04/28 13:29:29;;;;;;;8.53;7.83;;;;;;;;;;5067089;28;20708;-57
2023/04/28 13:31:56;;;;;;;8.47;7.77;;;;;;;;;;5064999;28;20192;-57
2023/04/28 13:34:22;;;;;;;9.53;8.63;;;;;;;;;;5061984;28;20234;-56
2023/04/28 13:36:49;;;;;;;9.47;8.67;;;;;;;;;;5043358;28;20644;-56
2023/04/28 13:39:18;;;;;;;9.47;8.67;;;;;;;;;;5066513;28;20185;-57
2023/04/28 13:41:45;;;;;;;12.23;8.50;;;;;;;;;;5065456;28;20262;-56
2023/04/28 13:44:11;;;;;;;8.90;8.10;;;;;;;;;;5066651;28;20168;-56
2023/04/28 13:46:37;;;;;;;9.00;8.30;;;;;;;;;;5059499;28;20326;-56
2023/04/28 13:49:04;;;;;;;8.80;8.07;;;;;;;;;;5064980;28;20200;-57
2023/04/28 13:51:34;;;;;;;8.20;7.50;;;;;;;;;;5063838;28;20184;-56
2023/04/28 13:54:03;;;;;;;8.53;7.73;;;;;;;;;;5047176;28;20179;-56
2023/04/28 13:56:33;;;;;;;8.77;7.97;;;;;;;;;;5066704;28;20192;-57
2023/04/28 13:58:59;;;;;;;8.17;7.47;;;;;;;;;;5066857;28;20168;-56
2023/04/28 14:01:26;;;;;;;9.30;8.30;;;;;;;;;;5042580;28;20218;-56
2023/04/28 14:03:53;;;;;;;8.57;7.83;;;;;;;;;;5062085;28;20362;-56
2023/04/28 14:06:20;;;;;;;9.10;7.83;;;;;;;;;;5063903;28;20185;-55
2023/04/28 14:08:47;;;;;;;7.87;7.03;;;;;;;;;;5062689;28;20184;-54
2023/04/28 14:11:13;;;;;;;7.40;6.67;;;;;;;;;;5062469;28;20203;-56
2023/04/28 14:13:40;;;;;;;6.93;6.27;;;;;;;;;;5060804;28;20632;-56
2023/04/28 14:16:07;;;;;;;6.13;5.63;;;;;;;;;;5058062;28;20184;-56
2023/04/28 14:18:34;;;;;;;7.23;6.47;;;;;;;;;;5057821;28;20713;-55
2023/04/28 14:21:02;;;;;;;5.87;5.30;;;;;;;;;;5060297;28;20560;-55
2023/04/28 14:23:28;;;;;;;6.30;5.50;;;;;;;;;;5061225;28;20207;-55
2023/04/28 14:25:56;;;;;;;5.97;5.47;;;;;;;;;;5050808;28;21103;-55
2023/04/28 14:28:23;;;;;;;5.70;5.20;;;;;;;;;;5066786;28;20211;-58
2023/04/28 14:30:51;;;;;;;6.30;5.17;;;;;;;;;;5044073;28;20796;-55
2023/04/28 14:33:17;;;;;;;5.13;4.63;;;;;;;;;;5064438;28;20258;-56
2023/04/28 14:35:43;;;;;;;6.27;5.67;;;;;;;;;;5063945;28;20663;-56
2023/04/28 14:38:10;;;;;;;5.97;4.97;;;;;;;;;;5067201;28;20184;-56
2023/04/28 14:40:37;;;;;;;5.70;4.53;;;;;;;;;;5066336;28;20269;-56
2023/04/28 14:43:03;;;;;;;4.90;4.40;;;;;;;;;;5066858;28;20168;-55
2023/04/28 14:45:30;;;;;;;4.50;4.10;;;;;;;;;;5063758;28;20177;-55